Time;durP1;ratioP1;P1;durP2;ratioP2;P2;SDS_P1;SDS_P2;PMS_P1;PMS_P2;Temp;Humidity;BMP_temperature;BMP_pressure;BME280_temperature;BME280_humidity;BME280_pressure;Samples;Min_cycle;Max_cycle;Signal;HPM_P1;HPM_P2
2024/01/21 00:09:02;;;;;;;3.97;2.03;;;;;;;19.78;43.05;98154.44;20775796;28;20104;-76
2024/01/21 00:19:22;;;;;;;2.75;1.90;;;;;;;19.75;43.12;98152.31;20790073;28;20362;-75
2024/01/21 00:29:41;;;;;;;2.58;1.67;;;;;;;19.68;42.79;98143.72;20767542;28;20540;-75
2024/01/21 00:40:00;;;;;;;3.92;2.28;;;;;;;19.64;42.95;98145.38;20795323;28;20054;-75
2024/01/21 00:50:20;;;;;;;3.55;2.13;;;;;;;19.61;42.88;98146.00;20777350;28;20120;-75
2024/01/21 01:00:40;;;;;;;3.83;2.20;;;;;;;19.61;42.84;98137.88;20787032;28;20049;-75
2024/01/21 01:11:00;;;;;;;3.20;2.22;;;;;;;19.55;42.65;98140.66;20799253;28;20429;-75
2024/01/21 01:21:19;;;;;;;2.53;2.15;;;;;;;19.53;42.60;98136.63;20809453;28;20049;-75
2024/01/21 01:31:39;;;;;;;3.47;2.33;;;;;;;19.44;42.52;98141.88;20780252;28;20054;-75
2024/01/21 01:41:59;;;;;;;2.63;2.35;;;;;;;19.40;42.38;98143.53;20785395;28;20057;-75
2024/01/21 01:52:19;;;;;;;2.58;2.15;;;;;;;19.34;42.06;98142.00;20795953;28;20053;-75
2024/01/21 02:02:42;;;;;;;2.90;2.30;;;;;;;19.31;42.21;98148.00;20784300;28;20064;-75
2024/01/21 02:13:02;;;;;;;2.70;2.30;;;;;;;19.25;42.00;98143.75;20793322;28;20161;-75
2024/01/21 02:23:21;;;;;;;2.60;2.40;;;;;;;19.25;42.08;98132.94;20778244;28;20053;-75
2024/01/21 02:33:40;;;;;;;2.72;2.05;;;;;;;19.11;42.02;98141.75;20781752;28;20105;-76
2024/01/21 02:44:01;;;;;;;3.28;2.40;;;;;;;19.06;41.79;98122.09;20786954;28;20482;-72
2024/01/21 02:54:21;;;;;;;2.40;2.20;;;;;;;19.01;42.01;98112.16;20777331;28;20112;-72
2024/01/21 03:04:40;;;;;;;3.60;2.60;;;;;;;18.95;41.84;98118.72;20795724;28;20068;-72
2024/01/21 03:14:59;;;;;;;3.15;2.72;;;;;;;18.94;41.56;98125.22;20792867;28;20060;-72
2024/01/21 03:25:19;;;;;;;2.75;2.50;;;;;;;18.91;41.78;98128.47;20787040;28;20057;-72
2024/01/21 03:35:38;;;;;;;3.10;2.60;;;;;;;18.83;41.78;98123.72;20769201;28;20080;-72
2024/01/21 03:45:58;;;;;;;3.05;2.30;;;;;;;18.75;41.67;98122.41;20809015;28;20049;-72
2024/01/21 03:56:18;;;;;;;2.65;2.20;;;;;;;18.71;41.65;98122.19;20759706;28;20058;-75
2024/01/21 04:06:42;;;;;;;3.22;2.60;;;;;;;18.68;41.89;98111.13;20808273;28;20053;-75
2024/01/21 04:17:02;;;;;;;2.50;2.30;;;;;;;18.62;41.58;98090.69;20795404;28;20088;-75
2024/01/21 04:27:21;;;;;;;3.33;2.38;;;;;;;18.54;41.61;98084.84;20767680;28;20050;-74
2024/01/21 04:37:41;;;;;;;2.50;2.30;;;;;;;18.51;41.60;98071.91;20776042;28;20663;-75
2024/01/21 04:48:00;;;;;;;3.10;2.78;;;;;;;18.48;41.61;98077.09;20796653;28;20049;-75
2024/01/21 04:58:20;;;;;;;3.42;2.60;;;;;;;18.41;41.54;98073.94;20800464;28;20049;-75
2024/01/21 05:08:40;;;;;;;3.25;2.53;;;;;;;18.43;41.31;98058.25;20802933;28;20049;-76
2024/01/21 05:19:00;;;;;;;3.03;2.50;;;;;;;18.35;41.33;98051.59;20785089;28;23174;-75
2024/01/21 05:29:19;;;;;;;3.17;2.88;;;;;;;18.30;41.24;98055.13;20809919;28;20165;-75
2024/01/21 05:39:38;;;;;;;4.60;2.90;;;;;;;18.29;41.27;98058.13;20799084;28;20048;-75
2024/01/21 05:49:58;;;;;;;5.03;3.15;;;;;;;18.23;41.24;98065.47;20787657;28;20050;-75
2024/01/21 06:00:18;;;;;;;3.67;3.08;;;;;;;18.18;41.09;98058.22;20786024;28;20050;-75
2024/01/21 06:10:37;;;;;;;4.82;3.00;;;;;;;18.18;41.13;98058.22;20759920;28;20054;-71
2024/01/21 06:20:57;;;;;;;8.40;3.42;;;;;;;18.22;41.54;98063.06;20781119;28;20069;-72
2024/01/21 06:31:17;;;;;;;3.40;3.10;;;;;;;18.24;41.71;98045.47;20785577;28;20053;-72
2024/01/21 06:41:37;;;;;;;3.90;3.50;;;;;;;18.23;42.00;98049.28;20822324;28;20045;-73
2024/01/21 06:51:57;;;;;;;3.83;3.30;;;;;;;18.28;42.07;98053.81;20778279;28;20057;-72
2024/01/21 07:02:16;;;;;;;5.03;3.38;;;;;;;18.33;42.06;98081.56;20782667;28;20462;-71
2024/01/21 07:12:36;;;;;;;4.30;3.05;;;;;;;18.42;42.08;98070.94;20769111;28;20383;-72
2024/01/21 07:22:56;;;;;;;3.78;3.08;;;;;;;18.45;41.99;98073.06;20803925;28;20054;-76
2024/01/21 07:33:15;;;;;;;4.05;3.53;;;;;;;18.63;42.03;98078.81;20778599;28;20053;-74
2024/01/21 07:43:35;;;;;;;5.03;4.25;;;;;;;18.64;41.27;98081.25;20788573;28;20076;-76
2024/01/21 07:53:55;;;;;;;4.97;4.05;;;;;;;18.75;40.61;98077.31;20751015;28;20045;-77
2024/01/21 08:04:15;;;;;;;6.07;4.38;;;;;;;18.87;39.83;98081.53;20750814;28;20131;-74
2024/01/21 08:14:36;;;;;;;4.55;4.10;;;;;;;18.98;40.28;98079.53;20770701;28;20142;-75
2024/01/21 08:24:56;;;;;;;5.15;4.65;;;;;;;19.05;40.02;98090.78;20767587;28;20528;-75
2024/01/21 08:35:17;;;;;;;7.22;4.45;;;;;;;19.13;39.63;98077.44;20769434;28;20085;-71
2024/01/21 08:45:37;;;;;;;6.90;5.18;;;;;;;19.30;39.49;98065.31;20761516;28;20054;-71
2024/01/21 08:55:57;;;;;;;5.32;4.72;;;;;;;19.44;38.91;98062.69;20749265;28;20057;-70
2024/01/21 09:06:19;;;;;;;7.00;5.55;;;;;;;19.51;38.39;98063.16;20765439;28;20159;-72
2024/01/21 09:16:39;;;;;;;9.32;5.68;;;;;;;19.69;38.70;98061.53;20774761;28;20490;-72
2024/01/21 09:26:58;;;;;;;10.48;5.78;;;;;;;19.77;39.04;98052.75;20768633;28;20061;-74
2024/01/21 09:37:18;;;;;;;8.02;5.53;;;;;;;19.93;39.39;98039.78;20751149;28;20057;-73
2024/01/21 09:47:38;;;;;;;8.95;5.35;;;;;;;20.04;39.85;98026.91;20712242;28;20060;-75
2024/01/21 09:57:59;;;;;;;7.40;5.60;;;;;;;20.16;40.28;98008.28;20721995;28;20062;-75
2024/01/21 10:08:18;;;;;;;8.80;5.40;;;;;;;20.25;39.38;97987.56;20753746;28;21109;-76
2024/01/21 10:18:38;;;;;;;7.00;5.35;;;;;;;20.28;39.39;97972.63;20779002;28;20057;-78
2024/01/21 10:28:58;;;;;;;7.97;5.38;;;;;;;20.37;38.32;97961.91;20772300;28;20419;-76
2024/01/21 10:39:20;;;;;;;9.05;5.50;;;;;;;20.44;39.01;97957.69;20774529;28;20440;-76
2024/01/21 10:49:40;;;;;;;8.65;5.72;;;;;;;20.48;40.18;97957.88;20757269;28;20046;-72
2024/01/21 11:00:00;;;;;;;14.85;12.88;;;;;;;20.52;43.66;97975.13;20808013;28;20045;-72
2024/01/21 11:10:20;;;;;;;23.80;12.20;;;;;;;20.52;43.75;97969.69;20742166;28;20042;-73
2024/01/21 11:20:39;;;;;;;21.30;13.32;;;;;;;20.12;39.92;97977.53;20789733;28;20049;-73
2024/01/21 11:31:00;;;;;;;27.23;12.77;;;;;;;20.35;39.70;97979.25;20766563;28;20336;-73
2024/01/21 11:41:22;;;;;;;21.10;11.63;;;;;;;20.42;41.65;97981.53;20738442;28;20054;-77
2024/01/21 11:51:44;;;;;;;22.88;10.55;;;;;;;20.47;42.46;97961.69;20706918;28;20137;-72
2024/01/21 12:02:06;;;;;;;16.20;8.27;;;;;;;20.42;42.98;97940.13;20767614;28;20156;-77
2024/01/21 12:12:26;;;;;;;12.45;7.30;;;;;;;20.42;42.93;97948.25;20752398;28;20057;-76
2024/01/21 12:22:46;;;;;;;19.48;6.80;;;;;;;20.44;42.46;97936.03;20779243;28;20061;-75
2024/01/21 12:33:06;;;;;;;9.85;6.35;;;;;;;20.36;40.70;97906.97;20781351;28;20053;-75
2024/01/21 12:43:25;;;;;;;9.02;5.53;;;;;;;20.05;39.60;97874.31;20778817;28;20050;-75
2024/01/21 12:53:46;;;;;;;7.68;5.63;;;;;;;20.25;37.71;97903.69;20736376;28;20149;-75
2024/01/21 13:04:06;;;;;;;11.63;6.10;;;;;;;20.29;38.00;97895.75;20745706;28;20046;-75
2024/01/21 13:14:26;;;;;;;10.00;6.07;;;;;;;20.26;39.16;97890.94;20772770;28;20045;-75
2024/01/21 13:24:45;;;;;;;13.15;5.38;;;;;;;20.27;37.69;97908.78;20760402;28;20058;-75
2024/01/21 13:35:06;;;;;;;9.00;8.10;;;;;;;18.47;30.61;97894.69;20786445;28;20054;-75
2024/01/21 13:45:25;;;;;;;13.07;8.48;;;;;;;19.52;32.60;97860.16;20767905;28;20060;-75
2024/01/21 13:55:45;;;;;;;9.25;7.00;;;;;;;19.73;33.60;97851.69;20729826;28;20112;-75
2024/01/21 14:06:05;;;;;;;8.63;6.72;;;;;;;19.82;34.29;97882.34;20747934;28;20112;-74
2024/01/21 14:16:24;;;;;;;7.07;6.10;;;;;;;19.91;34.92;97893.25;20749693;28;20057;-75
2024/01/21 14:26:44;;;;;;;7.93;6.80;;;;;;;19.99;35.42;97951.25;20749580;28;20045;-72
2024/01/21 14:37:04;;;;;;;7.93;6.18;;;;;;;20.04;35.88;97956.59;20764461;28;20082;-72
2024/01/21 14:47:23;;;;;;;7.95;5.55;;;;;;;20.04;36.08;97916.00;20729874;28;20120;-72
2024/01/21 14:57:43;;;;;;;6.07;5.40;;;;;;;20.09;36.26;97888.84;20741540;28;20081;-72
2024/01/21 15:08:04;;;;;;;5.68;5.00;;;;;;;20.12;36.55;97869.31;20750681;28;20105;-72
2024/01/21 15:18:28;;;;;;;7.45;5.80;;;;;;;20.18;36.73;97873.50;20737751;28;20081;-72
2024/01/21 15:28:48;;;;;;;5.60;5.00;;;;;;;20.24;36.79;97872.31;20774705;28;20054;-72
2024/01/21 15:39:07;;;;;;;8.25;5.55;;;;;;;20.26;37.71;97869.28;20766083;28;20057;-72
2024/01/21 15:49:27;;;;;;;6.38;5.40;;;;;;;20.35;40.72;97857.47;20719497;28;20109;-72
2024/01/21 15:59:47;;;;;;;7.32;5.20;;;;;;;20.48;40.54;97817.94;20744238;28;20053;-72
2024/01/21 16:10:08;;;;;;;6.07;5.05;;;;;;;20.48;40.61;97863.97;20772518;28;20133;-73
2024/01/21 16:20:27;;;;;;;8.82;4.70;;;;;;;20.40;40.45;97858.44;20760877;28;20071;-72
2024/01/21 16:30:47;;;;;;;9.25;4.80;;;;;;;20.45;40.09;97945.75;20785481;28;20410;-72
2024/01/21 16:41:07;;;;;;;7.05;4.63;;;;;;;20.41;40.21;97957.50;20719466;28;20161;-75
2024/01/21 16:51:36;;;;;;;5.85;4.60;;;;;;;20.40;40.04;97935.03;20729187;28;20141;-75
2024/01/21 17:02:00;;;;;;;6.25;5.00;;;;;;;20.40;39.93;97953.19;20735521;28;20054;-75
2024/01/21 17:12:26;;;;;;;5.10;4.28;;;;;;;20.32;39.93;97963.59;20734624;28;20076;-75
2024/01/21 17:22:46;;;;;;;4.82;4.20;;;;;;;20.30;39.96;97954.97;20725297;28;20491;-75
2024/01/21 17:33:06;;;;;;;6.32;4.38;;;;;;;20.27;40.25;97936.66;20716470;28;20392;-75
2024/01/21 17:43:26;;;;;;;5.40;4.43;;;;;;;20.24;40.24;97925.63;20705303;28;20046;-75
2024/01/21 17:53:46;;;;;;;6.63;4.50;;;;;;;20.20;40.06;97940.84;20667665;28;20564;-75
2024/01/21 18:04:07;;;;;;;4.45;4.05;;;;;;;20.23;40.37;97943.78;20717328;28;20060;-74
2024/01/21 18:14:26;;;;;;;5.15;4.07;;;;;;;20.20;40.36;97946.28;20734811;28;20053;-74
2024/01/21 18:24:50;;;;;;;4.40;3.88;;;;;;;20.20;39.98;97930.81;20711534;28;20053;-75
2024/01/21 18:35:09;;;;;;;8.30;4.05;;;;;;;20.08;41.24;97911.59;20735794;28;20100;-75
2024/01/21 18:45:29;;;;;;;11.02;3.83;;;;;;;20.05;41.95;97913.00;20763842;28;20046;-77
2024/01/21 18:55:49;;;;;;;6.68;4.15;;;;;;;20.02;41.96;97897.38;20709714;28;20058;-77
2024/01/21 19:06:08;;;;;;;6.97;3.70;;;;;;;20.00;42.31;97891.47;20716761;28;20149;-73
2024/01/21 19:16:28;;;;;;;6.72;3.80;;;;;;;19.94;42.61;97882.63;20697545;28;20062;-73
2024/01/21 19:26:47;;;;;;;6.25;3.83;;;;;;;19.91;42.53;97890.53;20719593;28;20061;-72
2024/01/21 19:37:07;;;;;;;4.57;3.80;;;;;;;19.86;42.39;97877.94;20725238;28;20184;-71
2024/01/21 19:47:26;;;;;;;5.50;3.92;;;;;;;19.84;42.45;97873.94;20789241;28;20053;-74
2024/01/21 19:57:46;;;;;;;4.78;3.67;;;;;;;19.79;42.37;97888.34;20755489;28;20058;-73
2024/01/21 20:08:06;;;;;;;9.27;3.65;;;;;;;19.75;42.34;97884.63;20752307;28;20545;-71
2024/01/21 20:18:25;;;;;;;5.07;3.70;;;;;;;19.65;42.41;97871.28;20715793;28;20391;-74
2024/01/21 20:28:45;;;;;;;7.30;3.80;;;;;;;19.59;42.61;97873.25;20702306;28;20061;-75
2024/01/21 20:39:05;;;;;;;8.95;3.72;;;;;;;19.56;42.38;97855.75;20695773;28;20105;-75
2024/01/21 20:49:24;;;;;;;6.03;3.83;;;;;;;19.51;42.13;97849.63;20707682;28;20530;-76
2024/01/21 20:59:44;;;;;;;6.72;4.20;;;;;;;19.49;42.14;97841.81;20788643;28;20069;-75
2024/01/21 21:10:05;;;;;;;4.55;3.72;;;;;;;19.47;41.83;97843.22;20767972;28;20058;-74
2024/01/21 21:20:25;;;;;;;7.65;4.20;;;;;;;19.49;42.00;97836.41;20751782;28;20060;-75
2024/01/21 21:30:44;;;;;;;7.05;4.25;;;;;;;19.58;41.97;97822.19;20746678;28;20061;-75
2024/01/21 21:41:04;;;;;;;7.97;4.00;;;;;;;19.61;42.15;97800.00;20696807;28;20545;-75
2024/01/21 21:51:23;;;;;;;12.50;5.00;;;;;;;19.64;41.94;97772.34;20701912;28;20057;-75
2024/01/21 22:01:42;;;;;;;9.60;5.03;;;;;;;19.72;42.05;97785.22;20811116;28;20096;-75
2024/01/21 22:12:04;;;;;;;10.07;5.32;;;;;;;19.77;42.02;97774.28;20766526;28;20054;-75
2024/01/21 22:22:23;;;;;;;10.43;5.47;;;;;;;19.79;41.84;97747.72;20737550;28;20050;-75
2024/01/21 22:32:43;;;;;;;10.30;5.80;;;;;;;19.92;41.93;97746.91;20749403;28;20050;-73
2024/01/21 22:43:02;;;;;;;10.07;5.70;;;;;;;19.95;41.80;97713.03;20790428;28;20045;-72
2024/01/21 22:53:22;;;;;;;7.10;5.05;;;;;;;19.99;41.77;97719.44;20759316;28;20085;-72
2024/01/21 23:03:41;;;;;;;7.80;5.43;;;;;;;20.00;41.78;97699.41;20755589;28;20418;-72
2024/01/21 23:14:01;;;;;;;8.27;5.15;;;;;;;20.00;41.70;97685.91;20780313;28;20491;-72
2024/01/21 23:24:21;;;;;;;5.70;4.65;;;;;;;19.97;41.68;97656.75;20744116;28;20696;-72
2024/01/21 23:34:40;;;;;;;6.60;4.65;;;;;;;19.90;41.49;97651.78;20776178;28;20538;-73
2024/01/21 23:44:59;;;;;;;7.45;4.80;;;;;;;19.93;41.11;97636.84;20775088;28;20554;-75
2024/01/21 23:55:19;;;;;;;6.80;4.50;;;;;;;19.91;41.39;97625.53;20741439;28;20063;-73
